Time;durP1;ratioP1;P1;durP2;ratioP2;P2;SDS_P1;SDS_P2;PMS_P1;PMS_P2;Temp;Humidity;BMP_temperature;BMP_pressure;BME280_temperature;BME280_humidity;BME280_pressure;Samples;Min_cycle;Max_cycle;Signal;HPM_P1;HPM_P2
2021/03/21 00:02:12;;;;;;;;;50.00;39.20;;;;;4.47;33.10;99238.09;6282933;27;124876;-58
2021/03/21 00:05:13;;;;;;;;;49.40;39.40;;;;;4.39;33.03;99233.63;6283425;27;128501;-58
2021/03/21 00:08:21;;;;;;;;;52.20;40.20;;;;;4.38;33.07;99228.47;6282036;27;128028;-58
2021/03/21 00:11:23;;;;;;;;;50.00;40.00;;;;;4.41;33.03;99228.94;6285525;27;123798;-58
2021/03/21 00:14:24;;;;;;;;;49.75;39.00;;;;;4.33;33.30;99207.63;6269560;27;128417;-58
2021/03/21 00:17:25;;;;;;;;;50.00;39.00;;;;;4.38;33.34;99218.63;6287916;27;127426;-58
2021/03/21 00:20:31;;;;;;;;;48.80;40.00;;;;;4.30;33.42;99216.78;6287132;27;125288;-58
2021/03/21 00:23:32;;;;;;;;;49.75;39.25;;;;;4.22;33.36;99216.84;6286739;27;127111;-58
2021/03/21 00:26:35;;;;;;;;;51.75;41.75;;;;;4.22;33.30;99222.19;6269463;27;128586;-58
2021/03/21 00:29:37;;;;;;;;;49.00;39.00;;;;;4.26;33.29;99212.81;6286617;27;126324;-58
2021/03/21 00:32:38;;;;;;;;;49.00;40.00;;;;;4.18;33.54;99207.53;6287340;27;126269;-58
2021/03/21 00:35:42;;;;;;;;;50.00;38.00;;;;;4.07;33.45;99191.06;6286402;27;124602;-58
2021/03/21 00:38:51;;;;;;;;;49.00;39.00;;;;;3.96;33.50;99162.09;6287490;27;127494;-58
2021/03/21 00:41:52;;;;;;;;;49.80;41.80;;;;;4.07;33.63;99185.72;6286380;27;126333;-58
2021/03/21 00:44:53;;;;;;;;;53.00;41.40;;;;;3.95;33.79;99165.78;6284231;27;127844;-58
2021/03/21 00:47:55;;;;;;;;;52.00;40.50;;;;;4.07;33.69;99183.88;6285563;27;126576;-58
2021/03/21 00:50:57;;;;;;;;;50.40;41.40;;;;;4.07;33.75;99181.22;6284722;27;127516;-58
2021/03/21 00:53:59;;;;;;;;;50.20;40.80;;;;;3.84;33.83;99142.97;6286375;27;126993;-58
2021/03/21 00:57:00;;;;;;;;;53.20;42.80;;;;;3.93;34.17;99155.25;6286092;27;125404;-58
2021/03/21 01:00:05;;;;;;;;;55.00;44.00;;;;;4.04;33.66;99170.06;6286208;27;127141;-58
2021/03/21 01:03:07;;;;;;;;;50.00;41.00;;;;;3.95;34.16;99163.09;6286844;27;125884;-58
2021/03/21 01:06:09;;;;;;;;;54.50;43.00;;;;;3.72;33.92;99118.50;6268475;27;126922;-58
2021/03/21 01:09:13;;;;;;;;;53.00;42.00;;;;;3.98;34.23;99157.41;6268216;27;127593;-58
2021/03/21 01:12:15;;;;;;;;;51.00;41.00;;;;;3.96;33.85;99144.25;6251922;27;126922;-58
2021/03/21 01:15:17;;;;;;;;;52.00;42.00;;;;;3.98;34.32;99149.41;6286588;27;126586;-58
2021/03/21 01:18:23;;;;;;;;;50.60;42.00;;;;;3.96;34.20;99138.09;6286041;27;127396;-58
2021/03/21 01:21:27;;;;;;;;;54.00;42.00;;;;;3.93;34.45;99132.09;6286150;27;124007;-58
2021/03/21 01:24:31;;;;;;;;;53.00;42.25;;;;;3.92;34.53;99121.59;6267036;27;125894;-58
2021/03/21 01:27:32;;;;;;;;;53.00;43.00;;;;;3.91;34.45;99122.59;6286452;27;127866;-58
2021/03/21 01:30:34;;;;;;;;;53.25;42.25;;;;;3.87;34.06;99122.09;6285423;27;125443;-58
2021/03/21 01:33:36;;;;;;;;;54.00;42.00;;;;;3.79;34.36;99105.31;6286295;27;126443;-58
2021/03/21 01:36:39;;;;;;;;;52.60;42.00;;;;;3.76;34.66;99114.47;6286389;27;128223;-58
2021/03/21 01:39:40;;;;;;;;;51.00;41.80;;;;;3.73;34.55;99112.16;6266645;27;125989;-58
2021/03/21 01:42:45;;;;;;;;;52.40;42.40;;;;;3.71;34.81;99105.38;6285732;27;127580;-58
2021/03/21 01:45:50;;;;;;;;;50.00;40.20;;;;;3.63;34.62;99108.88;6285402;27;127729;-58
2021/03/21 01:48:55;;;;;;;;;56.00;43.25;;;;;3.33;34.96;99054.50;6285395;27;127104;-58
2021/03/21 01:52:00;;;;;;;;;54.00;43.00;;;;;3.56;34.83;99088.41;6285701;27;127277;-58
2021/03/21 01:55:07;;;;;;;;;53.00;41.60;;;;;3.63;34.88;99100.88;6285955;27;127184;-58
2021/03/21 01:58:10;;;;;;;;;54.20;42.80;;;;;3.57;35.12;99093.56;6285097;27;126339;-58
2021/03/21 02:01:18;;;;;;;;;52.40;40.40;;;;;3.43;35.07;99076.44;6284649;27;126202;-58
2021/03/21 02:04:20;;;;;;;;;55.00;43.00;;;;;3.50;35.21;99084.59;6284556;27;125145;-58
2021/03/21 02:08:11;;;;;;;;;51.40;42.00;;;;;3.42;35.57;99073.97;6284320;27;123803;-58
2021/03/21 02:11:27;;;;;;;;;53.50;41.75;;;;;3.38;35.30;99064.63;6285194;27;126965;-58
2021/03/21 02:14:54;;;;;;;;;49.40;40.00;;;;;3.31;35.49;99058.34;6284755;27;124404;-58
2021/03/21 02:18:20;;;;;;;;;52.50;42.00;;;;;3.29;35.78;99065.66;6283876;27;126003;-58
2021/03/21 02:21:36;;;;;;;;;50.20;41.40;;;;;3.29;35.64;99049.69;6285363;27;126813;-58
2021/03/21 02:24:59;;;;;;;;;49.00;39.40;;;;;3.32;35.24;99044.03;6284644;27;127021;-58
2021/03/21 02:28:30;;;;;;;;;50.00;41.00;;;;;3.29;35.48;99036.38;6266122;27;124666;-58
2021/03/21 02:31:51;;;;;;;;;50.00;41.00;;;;;3.09;35.57;98995.13;6221212;27;127292;-58
2021/03/21 02:34:58;;;;;;;;;50.40;40.00;;;;;3.28;35.32;99032.88;6259058;27;126209;-58
2021/03/21 02:38:26;;;;;;;;;52.00;40.40;;;;;3.27;35.83;99025.06;6283315;27;124771;-58
2021/03/21 02:41:42;;;;;;;;;48.40;40.00;;;;;3.30;35.38;99016.72;6284991;27;127033;-58
2021/03/21 02:44:52;;;;;;;;;50.00;41.00;;;;;3.12;35.67;98998.31;6284529;27;127150;-58
2021/03/21 02:48:01;;;;;;;;;50.00;40.00;;;;;3.20;35.51;98995.59;6283716;27;127123;-58
2021/03/21 02:51:12;;;;;;;;;50.00;39.60;;;;;3.17;35.65;98987.97;6265862;27;123195;-58
2021/03/21 02:54:38;;;;;;;;;50.40;39.40;;;;;3.21;35.68;98993.78;6284920;27;125778;-58
2021/03/21 02:57:48;;;;;;;;;47.00;37.00;;;;;3.21;35.47;98967.13;6284766;27;125852;-58
2021/03/21 03:01:08;;;;;;;;;46.40;36.60;;;;;3.11;35.93;98969.16;6283981;27;126354;-58
2021/03/21 03:04:18;;;;;;;;;48.40;40.40;;;;;3.08;35.44;98964.19;6284041;27;125379;-58
2021/03/21 03:07:26;;;;;;;;;47.00;39.00;;;;;2.97;35.56;98941.44;6266048;27;125920;-58
2021/03/21 03:10:33;;;;;;;;;52.00;40.00;;;;;2.75;35.39;98916.34;6284473;27;128668;-58
2021/03/21 03:13:42;;;;;;;;;48.00;37.20;;;;;2.93;35.24;98938.25;6284144;27;126905;-58
2021/03/21 03:17:00;;;;;;;;;49.00;40.00;;;;;3.00;35.55;98951.72;6284294;27;126798;-58
2021/03/21 03:20:39;;;;;;;;;46.40;38.00;;;;;3.07;35.07;98942.06;6283390;27;125740;-58
2021/03/21 03:23:52;;;;;;;;;49.00;38.00;;;;;2.96;35.16;98943.25;6283490;27;125909;-58
2021/03/21 03:27:00;;;;;;;;;44.25;35.00;;;;;2.04;35.71;98831.25;6282536;27;125139;-58
2021/03/21 03:30:17;;;;;;;;;49.00;38.20;;;;;2.66;35.86;98929.88;6283300;27;125966;-58
2021/03/21 03:33:20;;;;;;;;;46.00;36.00;;;;;2.40;35.87;98885.69;6284202;27;126211;-58
2021/03/21 03:36:22;;;;;;;;;46.60;37.80;;;;;2.59;35.89;98914.56;6282774;27;126394;-58
2021/03/21 03:39:25;;;;;;;;;48.20;39.00;;;;;2.54;35.92;98906.25;6283585;27;127415;-58
2021/03/21 03:42:51;;;;;;;;;47.00;38.00;;;;;2.59;35.79;98900.47;6283362;27;126064;-58
2021/03/21 03:46:30;;;;;;;;;46.60;36.00;;;;;2.65;35.39;98890.94;6286125;27;127125;-58
2021/03/21 03:49:45;;;;;;;;;43.00;35.00;;;;;2.56;35.51;98882.97;6241981;27;125863;-57
2021/03/21 03:53:06;;;;;;;;;44.33;35.00;;;;;2.55;35.46;98883.16;6288257;27;126999;-58
2021/03/21 03:56:21;;;;;;;;;42.00;35.00;;;;;2.63;35.12;98879.66;6287557;27;126035;-58
2021/03/21 03:59:59;;;;;;;;;38.20;32.20;;;;;2.64;35.05;98882.13;6287347;27;124754;-58
2021/03/21 04:03:36;;;;;;;;;40.80;33.20;;;;;2.44;35.16;98862.25;6287435;27;124422;-58
2021/03/21 04:06:46;;;;;;;;;39.40;34.20;;;;;2.46;35.49;98863.72;6286988;27;126203;-58
2021/03/21 04:10:18;;;;;;;;;37.00;32.00;;;;;2.52;35.59;98856.88;6268849;27;126763;-58
2021/03/21 04:13:27;;;;;;;;;39.25;33.00;;;;;2.59;35.28;98853.34;6255740;27;126615;-58
2021/03/21 04:16:35;;;;;;;;;39.75;33.00;;;;;2.62;34.97;98833.56;6287190;27;124834;-58
2021/03/21 04:19:42;;;;;;;;;40.00;33.00;;;;;2.57;35.12;98827.94;6287602;27;126956;-58
2021/03/21 04:22:54;;;;;;;;;34.00;28.40;;;;;2.54;35.01;98833.59;6287793;27;125079;-58
2021/03/21 04:26:01;;;;;;;;;33.40;30.00;;;;;2.48;35.08;98824.47;6287543;27;126273;-58
2021/03/21 04:29:12;;;;;;;;;33.50;30.25;;;;;2.35;34.81;98824.16;6262383;27;125949;-58
2021/03/21 04:32:19;;;;;;;;;33.40;30.40;;;;;2.30;35.23;98820.38;6261672;27;124618;-58
2021/03/21 04:35:53;;;;;;;;;35.40;32.00;;;;;2.38;34.91;98810.53;6270976;27;125958;-58
2021/03/21 04:39:00;;;;;;;;;31.00;28.60;;;;;2.36;34.99;98815.19;6287255;27;125791;-58
2021/03/21 04:42:07;;;;;;;;;33.00;30.00;;;;;2.47;34.74;98814.00;6268651;27;125807;-58
2021/03/21 04:45:15;;;;;;;;;27.00;25.00;;;;;2.46;34.56;98815.00;6287088;27;126327;-58
2021/03/21 04:48:20;;;;;;;;;28.00;26.00;;;;;2.56;34.35;98805.81;6286547;27;126093;-58
2021/03/21 04:51:29;;;;;;;;;27.80;25.20;;;;;2.57;34.13;98799.50;6287202;27;126374;-58
2021/03/21 04:54:37;;;;;;;;;26.40;22.60;;;;;2.64;33.86;98793.47;6286689;27;126663;-58
2021/03/21 04:57:45;;;;;;;;;25.00;24.40;;;;;2.75;33.50;98787.75;6286249;27;126973;-57
2021/03/21 05:01:11;;;;;;;;;21.00;20.00;;;;;2.52;33.23;98745.97;6286318;27;125753;-58
2021/03/21 05:04:18;;;;;;;;;23.25;22.00;;;;;2.58;33.25;98765.72;6286607;27;127086;-58
2021/03/21 05:07:45;;;;;;;;;22.50;21.75;;;;;2.84;33.33;98787.53;6285353;27;124668;-58
2021/03/21 05:10:53;;;;;;;;;24.25;22.25;;;;;2.88;33.28;98769.38;6286113;27;124585;-58
2021/03/21 05:14:04;;;;;;;;;21.00;18.00;;;;;2.98;33.11;98770.00;6285556;27;124651;-58
2021/03/21 05:17:25;;;;;;;;;20.00;18.40;;;;;3.02;32.48;98769.47;6250428;27;123974;-58
2021/03/21 05:20:48;;;;;;;;;17.80;17.80;;;;;2.25;32.75;98629.38;6286283;27;124423;-58
2021/03/21 05:23:58;;;;;;;;;17.75;17.75;;;;;3.17;32.34;98758.88;6286248;27;127018;-58
2021/03/21 05:27:15;;;;;;;;;17.60;17.00;;;;;3.20;32.53;98755.84;6286182;27;127092;-58
2021/03/21 05:30:23;;;;;;;;;17.00;16.00;;;;;3.05;32.44;98726.50;6285959;27;126462;-58
2021/03/21 05:33:25;;;;;;;;;18.00;15.80;;;;;3.44;32.22;98742.31;6286464;27;126956;-58
2021/03/21 05:36:54;;;;;;;;;16.60;14.60;;;;;3.57;31.82;98738.22;6286160;27;125392;-58
2021/03/21 05:40:01;;;;;;;;;17.25;14.25;;;;;3.62;31.43;98741.97;6286620;27;126127;-58
2021/03/21 05:43:46;;;;;;;;;16.60;14.60;;;;;3.78;31.63;98731.16;6286565;27;126168;-58
2021/03/21 05:47:25;;;;;;;;;17.00;15.00;;;;;4.00;31.61;98723.28;6285500;27;124780;-58
2021/03/21 05:51:14;;;;;;;;;14.40;13.20;;;;;4.10;31.16;98721.16;6284840;27;125013;-58
2021/03/21 05:55:06;;;;;;;;;14.00;12.60;;;;;4.29;30.58;98721.44;6267316;27;124790;-58
2021/03/21 05:58:38;;;;;;;;;14.20;13.00;;;;;4.00;30.80;98692.09;6181027;28;127101;-58
2021/03/21 06:02:10;;;;;;;;;12.80;12.00;;;;;4.46;30.49;98707.84;6203380;27;124693;-58
2021/03/21 06:05:50;;;;;;;;;13.50;12.00;;;;;4.66;30.64;98698.25;6285737;27;125855;-58
2021/03/21 06:08:54;;;;;;;;;12.00;11.00;;;;;4.90;30.07;98713.91;6281882;27;123569;-58
2021/03/21 06:12:11;;;;;;;;;14.50;14.00;;;;;5.13;29.93;98714.53;6283049;27;126054;-58
2021/03/21 06:15:40;;;;;;;;;15.00;13.60;;;;;5.24;29.56;98698.00;6283165;27;126124;-58
2021/03/21 06:19:00;;;;;;;;;12.20;11.20;;;;;5.43;29.31;98701.88;6283609;27;127682;-58
2021/03/21 06:22:35;;;;;;;;;13.00;13.00;;;;;5.48;28.99;98695.94;6283381;27;125549;-58
2021/03/21 06:25:40;;;;;;;;;13.00;10.75;;;;;5.85;28.44;98690.25;6283797;27;124930;-58
2021/03/21 06:29:08;;;;;;;;;13.00;10.60;;;;;5.83;28.32;98686.94;6285351;27;126864;-58
2021/03/21 06:32:38;;;;;;;;;11.00;10.00;;;;;6.00;28.50;98666.09;6284341;27;125768;-58
2021/03/21 06:36:04;;;;;;;;;11.00;10.00;;;;;5.95;28.17;98666.69;6281693;27;127280;-58
2021/03/21 06:39:47;;;;;;;;;10.60;10.60;;;;;6.23;27.89;98661.25;6270326;27;124601;-58
2021/03/21 06:43:06;;;;;;;;;12.00;10.00;;;;;6.55;27.75;98649.00;6237188;27;125895;-58
2021/03/21 06:46:26;;;;;;;;;10.00;9.60;;;;;6.65;26.51;98633.34;6269771;27;125149;-58
2021/03/21 06:49:51;;;;;;;;;12.00;11.00;;;;;6.84;26.86;98623.72;6282250;27;126928;-58
2021/03/21 06:53:34;;;;;;;;;12.50;12.00;;;;;7.00;26.58;98620.63;6284337;27;125791;-58
2021/03/21 06:57:01;;;;;;;;;11.00;10.00;;;;;7.65;26.26;98618.94;6184795;27;125803;-58
2021/03/21 07:00:21;;;;;;;;;7.60;7.00;;;;;8.00;25.35;98623.00;6233139;27;125993;-58
2021/03/21 07:03:56;;;;;;;;;9.00;8.00;;;;;8.18;24.67;98614.25;6284581;27;126856;-58
2021/03/21 07:07:17;;;;;;;;;8.75;8.25;;;;;8.17;24.65;98624.16;6259421;27;126934;-58
2021/03/21 07:10:18;;;;;;;;;10.40;9.60;;;;;8.61;24.67;98612.59;6276593;27;127558;-58
2021/03/21 07:13:22;;;;;;;;;9.40;8.00;;;;;8.72;24.16;98604.91;6284517;27;126341;-58
2021/03/21 07:16:38;;;;;;;;;9.00;8.40;;;;;8.62;24.25;98605.38;6283794;27;127265;-58
2021/03/21 07:20:03;;;;;;;;;9.00;8.00;;;;;8.64;24.46;98601.44;6283339;27;125595;-58
2021/03/21 07:23:23;;;;;;;;;10.00;9.00;;;;;8.70;24.62;98605.94;6276090;27;125755;-58
2021/03/21 07:26:46;;;;;;;;;10.40;10.00;;;;;8.62;24.67;98597.31;6283297;27;125446;-58
2021/03/21 07:30:21;;;;;;;;;9.00;9.00;;;;;8.40;24.71;98594.16;6283292;27;126517;-58
2021/03/21 07:33:30;;;;;;;;;11.00;10.00;;;;;8.35;24.90;98593.13;6283149;27;125929;-58
2021/03/21 07:36:56;;;;;;;;;11.00;10.60;;;;;8.42;25.12;98586.69;6282933;27;125480;-58
2021/03/21 07:40:15;;;;;;;;;13.00;10.60;;;;;8.23;25.83;98576.84;6279903;27;125274;-58
2021/03/21 07:43:43;;;;;;;;;9.80;9.80;;;;;8.24;25.77;98600.78;6282981;27;124747;-58
2021/03/21 07:46:47;;;;;;;;;11.80;10.80;;;;;8.31;25.83;98586.56;6283493;27;123976;-58
2021/03/21 07:50:32;;;;;;;;;11.00;10.00;;;;;8.23;26.21;98572.28;6282949;27;127114;-58
2021/03/21 07:53:53;;;;;;;;;12.00;11.40;;;;;8.24;26.07;98573.13;6282376;27;125400;-58
2021/03/21 07:57:22;;;;;;;;;11.00;9.60;;;;;8.08;25.86;98561.00;6282663;27;125821;-58
2021/03/21 08:00:24;;;;;;;;;11.00;11.00;;;;;8.08;25.84;98552.13;6263719;27;127005;-58
2021/03/21 08:03:44;;;;;;;;;11.00;11.00;;;;;8.02;26.05;98547.59;6279189;27;126685;-58
2021/03/21 08:07:01;;;;;;;;;10.00;10.00;;;;;7.72;26.36;98517.81;6258866;27;127166;-58
2021/03/21 08:10:20;;;;;;;;;13.80;12.20;;;;;7.84;26.38;98548.28;6283334;27;126810;-58
2021/03/21 08:13:47;;;;;;;;;10.00;9.00;;;;;7.73;26.60;98552.47;6282184;27;126479;-58
2021/03/21 08:16:57;;;;;;;;;13.00;11.00;;;;;7.62;26.74;98555.81;6253501;27;124027;-58
2021/03/21 08:20:03;;;;;;;;;11.00;10.00;;;;;7.64;26.53;98551.03;6282617;27;127650;-58
2021/03/21 08:23:37;;;;;;;;;11.00;10.00;;;;;7.38;26.67;98540.38;6281608;27;125982;-58
2021/03/21 08:26:42;;;;;;;;;8.20;8.00;;;;;7.35;26.53;98520.19;6282240;27;126090;-58
2021/03/21 08:30:08;;;;;;;;;8.60;8.00;;;;;7.41;26.43;98526.56;6281794;27;125982;-58
2021/03/21 08:33:11;;;;;;;;;10.80;9.00;;;;;7.31;26.78;98513.59;6285705;27;126954;-58
2021/03/21 08:36:23;;;;;;;;;11.50;9.00;;;;;7.56;26.80;98511.06;6285410;27;125589;-58
2021/03/21 08:39:33;;;;;;;;;11.50;10.50;;;;;7.51;26.55;98512.72;6285277;27;124786;-58
2021/03/21 08:42:41;;;;;;;;;9.50;9.50;;;;;7.43;26.86;98521.00;6256690;27;126297;-58
2021/03/21 08:45:49;;;;;;;;;7.00;6.60;;;;;7.48;26.46;98515.84;6264518;27;125999;-58
2021/03/21 08:49:05;;;;;;;;;9.25;8.25;;;;;7.55;26.78;98509.41;6285774;27;126915;-58
2021/03/21 08:52:26;;;;;;;;;10.40;10.00;;;;;7.57;26.41;98498.47;6284737;27;125946;-58
2021/03/21 08:55:33;;;;;;;;;11.00;10.00;;;;;7.65;26.41;98500.91;6285254;27;125994;-58
2021/03/21 08:58:34;;;;;;;;;10.00;9.60;;;;;7.64;26.40;98492.03;6284880;27;126744;-58
2021/03/21 09:01:36;;;;;;;;;9.80;9.00;;;;;7.49;26.46;98488.78;6285577;27;125297;-57
2021/03/21 09:05:09;;;;;;;;;10.00;9.80;;;;;7.29;26.51;98490.69;6285940;27;126212;-57
2021/03/21 09:08:14;;;;;;;;;10.60;10.00;;;;;7.57;26.77;98485.88;6283741;27;126037;-57
2021/03/21 09:11:32;;;;;;;;;9.00;8.00;;;;;7.61;26.59;98500.50;6286372;27;127561;-58
2021/03/21 09:14:34;;;;;;;;;11.75;10.75;;;;;7.97;26.79;98483.81;6275075;27;126090;-58
2021/03/21 09:17:37;;;;;;;;;11.00;11.00;;;;;8.30;26.50;98486.34;6285118;27;126293;-58
2021/03/21 09:20:52;;;;;;;;;8.60;8.00;;;;;8.55;26.42;98489.88;6285878;27;126358;-58
2021/03/21 09:23:59;;;;;;;;;11.00;10.00;;;;;8.64;26.07;98491.28;6285660;27;126958;-58
2021/03/21 09:27:17;;;;;;;;;8.20;8.20;;;;;8.93;26.18;98484.41;6285117;27;126468;-58
2021/03/21 09:30:35;;;;;;;;;9.80;8.80;;;;;9.35;25.96;98473.84;6286090;27;126047;-58
2021/03/21 09:33:57;;;;;;;;;8.20;7.20;;;;;9.76;25.58;98463.22;6284898;27;124946;-58
2021/03/21 09:37:10;;;;;;;;;11.00;10.40;;;;;10.17;25.30;98473.22;6284657;27;126654;-58
2021/03/21 09:40:26;;;;;;;;;11.00;9.60;;;;;10.24;25.27;98463.19;6266155;27;125478;-58
2021/03/21 09:43:37;;;;;;;;;11.60;10.40;;;;;9.89;25.69;98456.81;6273325;27;126721;-57
2021/03/21 09:46:56;;;;;;;;;9.80;9.40;;;;;10.31;25.24;98469.28;6284247;27;124974;-58
2021/03/21 09:50:20;;;;;;;;;11.00;9.67;;;;;10.31;25.09;98455.81;6284426;27;124348;-58
2021/03/21 09:53:48;;;;;;;;;11.00;10.00;;;;;10.33;24.92;98461.81;6284730;27;127135;-58
2021/03/21 09:56:59;;;;;;;;;10.60;9.60;;;;;10.74;24.83;98434.00;6284677;27;126667;-58
2021/03/21 10:00:25;;;;;;;;;10.00;8.75;;;;;10.83;24.69;98451.47;6261622;27;124658;-58
2021/03/21 10:03:32;;;;;;;;;11.60;10.40;;;;;11.05;24.58;98438.19;6252166;27;127604;-58
2021/03/21 10:06:40;;;;;;;;;10.00;10.00;;;;;11.05;24.84;98457.06;6284787;27;126076;-58
2021/03/21 10:09:45;;;;;;;;;12.60;12.00;;;;;11.16;25.25;98450.03;6262744;27;126713;-58
2021/03/21 10:12:48;;;;;;;;;12.80;12.80;;;;;10.90;25.06;98400.09;6286466;27;126313;-58
2021/03/21 10:16:08;;;;;;;;;11.00;11.00;;;;;11.09;25.39;98439.34;6282788;27;127591;-58
2021/03/21 10:19:11;;;;;;;;;11.00;11.00;;;;;11.09;25.89;98433.97;6273674;27;124763;-58
2021/03/21 10:22:18;;;;;;;;;14.00;11.00;;;;;11.14;26.01;98444.88;6263391;27;125263;-58
2021/03/21 10:25:19;;;;;;;;;12.00;10.00;;;;;11.32;26.55;98427.75;6279955;27;127330;-58
2021/03/21 10:28:38;;;;;;;;;11.75;10.75;;;;;11.33;26.85;98429.38;6282476;27;124813;-58
2021/03/21 10:31:40;;;;;;;;;13.00;12.00;;;;;11.47;26.98;98433.47;6283862;27;127123;-58
2021/03/21 10:34:42;;;;;;;;;13.00;11.00;;;;;11.36;26.79;98434.28;6283339;27;126399;-58
2021/03/21 10:37:56;;;;;;;;;11.00;10.60;;;;;11.23;27.02;98440.78;6280011;27;126381;-58
2021/03/21 10:40:57;;;;;;;;;12.00;11.00;;;;;10.90;27.55;98435.16;6277155;27;126981;-58
2021/03/21 10:44:00;;;;;;;;;13.60;12.60;;;;;10.61;28.25;98419.91;6271230;27;124418;-58
2021/03/21 10:47:03;;;;;;;;;10.80;9.00;;;;;10.51;28.71;98412.38;6270975;27;126332;-58
2021/03/21 10:50:28;;;;;;;;;14.40;12.40;;;;;10.41;29.41;98429.13;6275178;27;126201;-58
2021/03/21 10:53:37;;;;;;;;;14.00;13.00;;;;;10.35;29.93;98427.38;6269237;27;126435;-58
2021/03/21 10:56:39;;;;;;;;;13.60;13.40;;;;;10.24;30.21;98422.78;6274363;27;125835;-58
2021/03/21 11:00:09;;;;;;;;;11.60;10.80;;;;;9.72;31.32;98381.28;6271131;27;125439;-58
2021/03/21 11:03:15;;;;;;;;;17.00;15.00;;;;;9.69;32.07;98397.03;6253861;27;126502;-58
2021/03/21 11:06:20;;;;;;;;;14.00;14.00;;;;;9.75;33.04;98418.50;6274500;27;126773;-58
2021/03/21 11:09:25;;;;;;;;;14.00;13.00;;;;;9.60;33.36;98412.69;6273283;27;127140;-58
2021/03/21 11:12:36;;;;;;;;;12.75;11.50;;;;;9.67;34.34;98418.00;6257761;27;124747;-58
2021/03/21 11:15:45;;;;;;;;;15.00;15.00;;;;;9.59;34.90;98413.72;6263118;27;126926;-57
2021/03/21 11:19:05;;;;;;;;;16.00;15.00;;;;;9.47;36.05;98410.16;6196267;28;96303;-56
2021/03/21 11:22:36;;;;;;;;;19.40;15.80;;;;;9.28;37.16;98392.41;6173944;28;125850;-57
2021/03/21 11:25:42;;;;;;;;;16.00;15.75;;;;;9.13;37.17;98401.69;6179834;28;127000;-57
2021/03/21 11:28:45;;;;;;;;;16.00;15.25;;;;;9.01;37.55;98414.19;6176607;28;126493;-57
2021/03/21 11:31:53;;;;;;;;;18.80;17.00;;;;;8.97;37.73;98418.38;6155135;28;127222;-57
2021/03/21 11:35:07;;;;;;;;;16.50;16.00;;;;;8.90;38.28;98408.72;6167599;28;124951;-57
2021/03/21 11:38:30;;;;;;;;;19.00;18.00;;;;;8.87;38.97;98404.63;6178661;28;125903;-57
2021/03/21 11:41:36;;;;;;;;;18.40;17.00;;;;;8.94;39.33;98399.19;6169518;28;127031;-57
2021/03/21 11:44:38;;;;;;;;;18.20;17.00;;;;;8.95;39.29;98404.34;6155255;28;126127;-57
2021/03/21 11:47:45;;;;;;;;;18.00;16.40;;;;;9.01;40.04;98410.69;6165414;28;127156;-57
2021/03/21 11:50:51;;;;;;;;;16.60;16.00;;;;;9.12;39.65;98397.34;6155132;28;126118;-58
2021/03/21 11:53:55;;;;;;;;;18.00;18.00;;;;;9.16;40.05;98389.63;6154935;28;126229;-58
2021/03/21 11:57:18;;;;;;;;;20.00;18.00;;;;;9.34;40.43;98378.84;6153380;28;127862;-58
2021/03/21 12:00:27;;;;;;;;;18.00;16.80;;;;;9.35;40.60;98377.81;6154358;28;127825;-58
2021/03/21 12:03:41;;;;;;;;;19.00;18.00;;;;;9.14;40.19;98335.25;6178629;28;125866;-58
2021/03/21 12:06:49;;;;;;;;;21.20;19.20;;;;;9.44;40.01;98375.63;6155856;28;127024;-58
2021/03/21 12:09:51;;;;;;;;;22.75;21.50;;;;;9.36;40.77;98366.00;6156981;28;126084;-58
2021/03/21 12:12:53;;;;;;;;;20.40;19.60;;;;;9.30;40.44;98361.53;6166309;28;127600;-58
2021/03/21 12:15:55;;;;;;;;;18.00;17.00;;;;;9.20;40.68;98371.16;6158063;28;125277;-58
2021/03/21 12:18:58;;;;;;;;;20.25;18.25;;;;;9.11;41.05;98359.91;6178355;28;127319;-58
2021/03/21 12:22:04;;;;;;;;;18.40;17.40;;;;;9.03;41.26;98361.03;6178903;28;126414;-58
2021/03/21 12:25:19;;;;;;;;;19.00;18.80;;;;;8.86;41.96;98353.78;6175107;28;126331;-58
2021/03/21 12:28:22;;;;;;;;;20.60;20.60;;;;;8.69;41.95;98351.69;6149089;28;127138;-58
2021/03/21 12:31:29;;;;;;;;;22.60;21.40;;;;;8.76;42.08;98348.91;6152571;28;125902;-58
2021/03/21 12:34:37;;;;;;;;;22.00;21.00;;;;;8.78;41.73;98337.97;6162521;28;127612;-58
2021/03/21 12:37:55;;;;;;;;;18.40;18.00;;;;;8.81;41.70;98340.19;6145072;28;125849;-58
2021/03/21 12:40:58;;;;;;;;;18.00;18.00;;;;;8.72;41.58;98322.72;6138690;28;125758;-58
2021/03/21 12:44:16;;;;;;;;;20.40;18.40;;;;;8.76;41.42;98313.16;6138082;28;127603;-58
2021/03/21 12:47:33;;;;;;;;;20.00;18.00;;;;;8.53;40.76;98273.53;6145757;28;126051;-58
2021/03/21 12:50:35;;;;;;;;;17.00;15.75;;;;;8.63;39.99;98298.00;6141001;28;123728;-58
2021/03/21 12:53:37;;;;;;;;;16.80;14.00;;;;;8.69;40.13;98291.75;6137648;28;126248;-58
2021/03/21 12:56:39;;;;;;;;;17.60;16.00;;;;;8.87;39.99;98305.19;6155325;28;128205;-58
2021/03/21 12:59:46;;;;;;;;;16.40;15.40;;;;;8.92;39.93;98305.31;6159821;28;125356;-58
2021/03/21 13:02:53;;;;;;;;;15.60;14.60;;;;;9.11;39.69;98301.56;6156595;28;127127;-58
2021/03/21 13:05:56;;;;;;;;;18.00;16.00;;;;;9.33;39.13;98306.47;6152346;28;126175;-58
2021/03/21 13:08:58;;;;;;;;;16.25;15.00;;;;;9.11;38.42;98304.25;6155311;28;126553;-58
2021/03/21 13:12:00;;;;;;;;;17.00;15.50;;;;;9.21;38.54;98292.97;6142664;28;126233;-58
2021/03/21 13:15:02;;;;;;;;;18.00;16.40;;;;;8.94;39.22;98280.91;6150430;28;126556;-58
2021/03/21 13:18:04;;;;;;;;;14.60;14.60;;;;;8.92;39.43;98277.63;6150937;28;125244;-58
2021/03/21 13:21:06;;;;;;;;;15.00;14.00;;;;;8.98;39.68;98268.66;6136517;28;126318;-58
2021/03/21 13:24:08;;;;;;;;;17.75;17.00;;;;;9.10;39.45;98251.53;6135614;28;127834;-58
2021/03/21 13:27:09;;;;;;;;;18.25;17.00;;;;;9.33;39.47;98264.25;6150723;28;127916;-58
2021/03/21 13:30:11;;;;;;;;;16.00;16.00;;;;;9.38;39.52;98253.59;6135681;28;129388;-58
2021/03/21 13:33:20;;;;;;;;;19.00;19.00;;;;;9.40;39.48;98261.44;6148130;28;127972;-58
2021/03/21 13:36:22;;;;;;;;;15.00;14.00;;;;;9.56;39.09;98244.66;6155066;28;124263;-58
2021/03/21 13:39:23;;;;;;;;;21.00;19.00;;;;;9.58;38.72;98245.22;6153483;28;127640;-58
2021/03/21 13:42:24;;;;;;;;;16.80;16.00;;;;;9.60;38.19;98235.06;6157161;28;127369;-58
2021/03/21 13:45:29;;;;;;;;;17.50;16.00;;;;;9.65;38.71;98237.88;6157623;28;125403;-58
2021/03/21 13:48:30;;;;;;;;;18.00;16.80;;;;;9.61;39.19;98227.81;6141488;28;126003;-58
2021/03/21 13:51:32;;;;;;;;;20.60;18.00;;;;;9.50;39.15;98229.44;6135674;28;124527;-58
2021/03/21 13:54:35;;;;;;;;;19.67;17.00;;;;;9.00;39.20;98185.91;6140241;28;124980;-58
2021/03/21 13:57:37;;;;;;;;;18.00;17.00;;;;;9.18;40.00;98220.00;6147483;28;125228;-58
2021/03/21 14:00:39;;;;;;;;;20.67;19.00;;;;;9.07;40.17;98219.72;6138022;28;128390;-58
2021/03/21 14:03:45;;;;;;;;;19.00;17.60;;;;;9.11;40.24;98210.16;6137240;28;125920;-58
2021/03/21 14:06:48;;;;;;;;;19.00;16.20;;;;;9.05;40.40;98202.97;6147724;28;124762;-57
2021/03/21 14:09:50;;;;;;;;;17.00;16.00;;;;;8.88;40.83;98174.28;6137255;28;126788;-58
2021/03/21 14:12:52;;;;;;;;;20.25;17.00;;;;;9.18;40.88;98211.94;6151383;28;126951;-57
2021/03/21 14:15:53;;;;;;;;;17.20;16.20;;;;;9.14;40.83;98203.47;6148239;28;125022;-57
2021/03/21 14:18:55;;;;;;;;;15.50;14.50;;;;;9.12;40.61;98192.97;6140896;28;125348;-58
2021/03/21 14:21:56;;;;;;;;;17.50;14.25;;;;;9.10;40.46;98195.06;6150076;28;125450;-58
2021/03/21 14:24:58;;;;;;;;;17.00;15.00;;;;;8.82;40.80;98181.41;6134018;28;126823;-58
2021/03/21 14:27:59;;;;;;;;;14.00;14.00;;;;;8.67;41.10;98170.22;6141814;28;125191;-58
2021/03/21 14:31:04;;;;;;;;;17.25;15.00;;;;;8.79;41.07;98172.97;6148744;28;125097;-57
2021/03/21 14:34:05;;;;;;;;;16.00;15.00;;;;;8.71;41.51;98171.41;6158669;28;126024;-58
2021/03/21 14:37:06;;;;;;;;;17.40;17.00;;;;;8.76;41.76;98170.72;6150360;28;127472;-58
2021/03/21 14:40:09;;;;;;;;;20.00;15.40;;;;;8.86;42.03;98169.13;6157758;28;125515;-58
2021/03/21 14:43:13;;;;;;;;;16.00;15.50;;;;;8.77;41.98;98167.00;6150481;28;127271;-58